»·PEaware :: JNY59 KSBD-KTUS

JNY59 :: KSBD-KTUS

FLIGHT INFORMATION

Flight Status: Arrived
Operator: Unknown
More flights by this operator :: More flights under this callsign
Pilot: Max W. (2591)
Aircraft: BOEING 767-200
(B762)
More flights by this aircraft type
Origin: KSBD San Bernardino Intl
United States
Destination: KTUS Tucson Intl
United States
More flights between these airports :: More routes between these airports
Route: +GBN DINGO5
File this flight plan on PilotEdge
Remarks:
Altitude:
(Current/Filed)
35,000ft
Speed:
(Current/Filed)
450kts
Departed: 14-Jun-19 05:41 PM
Arrived: 14-Jun-19 06:43 PM
Distance/Time
Traveled:
338nm/1:01
Distance/Time
To Go:
Arrived

Flight Plot

Page will automatically refresh every two minutes.

Flight plan parsing failed; only flown route is shown


Map Options




Map Legend


Flown Route
Filed Route
Departure Airport
Arrival Airport
Navaid (VOR, NDB)
Fix

Horizontal Profiles

Position Reports

Time Latitude Longitude Heading Altitude Ground
Speed
14-Jun-19 16:48 34.098158 -117.242496 360 1141ft 0kts
14-Jun-19 16:49 34.098158 -117.242496 360 1141ft 0kts
14-Jun-19 16:50 34.098158 -117.242496 360 1141ft 0kts
14-Jun-19 16:51 34.098158 -117.242496 360 1141ft 0kts
14-Jun-19 16:52 34.098158 -117.242496 360 1141ft 0kts
14-Jun-19 16:53 34.098158 -117.242496 360 1141ft 0kts
14-Jun-19 16:54 34.098158 -117.242496 360 1141ft 0kts
14-Jun-19 16:55 34.098158 -117.242496 360 1141ft 0kts
14-Jun-19 16:56 34.098158 -117.242496 360 1141ft 0kts
14-Jun-19 16:57 34.098158 -117.242496 360 1141ft 0kts
14-Jun-19 16:58 34.098158 -117.242496 360 1141ft 0kts
14-Jun-19 16:59 34.098158 -117.242496 360 1141ft 0kts
14-Jun-19 17:00 34.098158 -117.242496 360 1141ft 0kts
14-Jun-19 17:01 34.098158 -117.242496 360 1141ft 0kts
14-Jun-19 17:02 34.098158 -117.242496 360 1141ft 0kts
14-Jun-19 17:03 34.098158 -117.242496 360 1141ft 0kts
14-Jun-19 17:04 34.098158 -117.242496 360 1141ft 0kts
14-Jun-19 17:05 34.098158 -117.242496 360 1141ft 0kts
14-Jun-19 17:06 34.098158 -117.242496 360 1141ft 0kts
14-Jun-19 17:07 34.098158 -117.242496 360 1141ft 0kts
14-Jun-19 17:08 34.098158 -117.242496 360 1141ft 0kts
14-Jun-19 17:09 34.098158 -117.242496 360 1141ft 0kts
14-Jun-19 17:10 34.098158 -117.242496 360 1141ft 0kts
14-Jun-19 17:11 34.098158 -117.242496 360 1141ft 0kts
14-Jun-19 17:12 34.098158 -117.242496 360 1141ft 0kts
14-Jun-19 17:13 34.098158 -117.242496 359 1141ft 0kts
14-Jun-19 17:14 34.098158 -117.242496 359 1141ft 0kts
14-Jun-19 17:15 34.098158 -117.242496 359 1141ft 0kts
14-Jun-19 17:16 34.098158 -117.242496 359 1141ft 0kts
14-Jun-19 17:17 34.098158 -117.242496 359 1141ft 0kts
14-Jun-19 17:18 34.098158 -117.242496 359 1141ft 0kts
14-Jun-19 17:19 34.098158 -117.242496 359 1141ft 0kts
14-Jun-19 17:20 34.098158 -117.242496 359 1141ft 0kts
14-Jun-19 17:21 34.098158 -117.242496 359 1141ft 0kts
14-Jun-19 17:22 34.098158 -117.242496 359 1141ft 0kts
14-Jun-19 17:23 34.098158 -117.242496 359 1141ft 0kts
14-Jun-19 17:24 34.098387 -117.242490 10 1141ft 3kts
14-Jun-19 17:25 34.098313 -117.241210 98 1141ft 17kts
14-Jun-19 17:26 34.098978 -117.238185 325 1141ft 8kts
14-Jun-19 17:27 34.102226 -117.237742 108 1141ft 32kts
14-Jun-19 17:28 34.099717 -117.226266 77 1141ft 32kts
14-Jun-19 17:30 34.101157 -117.219958 151 1141ft 0kts
14-Jun-19 17:31 34.101157 -117.219958 151 1141ft 0kts
14-Jun-19 17:32 34.101157 -117.219958 151 1141ft 0kts
14-Jun-19 17:33 34.101158 -117.219958 151 1141ft 0kts
14-Jun-19 17:34 34.101158 -117.219958 151 1141ft 0kts
14-Jun-19 17:35 34.101158 -117.219958 151 1141ft 0kts
14-Jun-19 17:36 34.101100 -117.219926 154 1141ft 0kts
14-Jun-19 17:37 34.101100 -117.219926 154 1141ft 0kts
14-Jun-19 17:38 34.101061 -117.219904 155 1141ft 0kts
14-Jun-19 17:39 34.100997 -117.219868 155 1141ft 0kts
14-Jun-19 17:40 34.100903 -117.219822 161 1141ft 8kts
14-Jun-19 17:41 34.091037 -117.248662 244 3309ft 172kts
14-Jun-19 17:42 34.056851 -117.303516 232 5963ft 270kts
14-Jun-19 17:43 34.011061 -117.378032 232 8984ft 293kts
14-Jun-19 17:44 33.956386 -117.441435 188 8967ft 280kts
14-Jun-19 17:45 33.885003 -117.414302 166 8963ft 282kts
14-Jun-19 17:45 33.820860 -117.395899 169 11392ft 290kts
14-Jun-19 17:47 33.732801 -117.345752 121 13710ft 342kts
14-Jun-19 17:48 33.718528 -117.228671 96 17594ft 373kts
14-Jun-19 17:48 33.710562 -117.122702 98 20692ft 394kts
14-Jun-19 17:50 33.697641 -116.965040 97 22869ft 415kts
14-Jun-19 17:51 33.685929 -116.825187 97 26346ft 433kts
14-Jun-19 17:51 33.675548 -116.702739 97 28853ft 454kts
14-Jun-19 17:52 33.662282 -116.548325 96 31687ft 478kts
14-Jun-19 17:54 33.645803 -116.359522 95 34818ft 500kts
14-Jun-19 17:54 33.634117 -116.227532 96 34699ft 476kts
14-Jun-19 17:55 33.653074 -116.072870 70 34698ft 474kts
14-Jun-19 17:56 33.694672 -115.922689 70 34698ft 474kts
14-Jun-19 17:57 33.736373 -115.772690 70 34699ft 474kts
14-Jun-19 17:58 33.777852 -115.622806 70 34700ft 474kts
14-Jun-19 17:59 33.809729 -115.469836 88 34701ft 476kts
14-Jun-19 18:00 33.779063 -115.321261 111 34706ft 475kts
14-Jun-19 18:01 33.731542 -115.173586 112 34724ft 475kts
14-Jun-19 18:02 33.683516 -115.026700 112 34725ft 472kts
14-Jun-19 18:03 33.635295 -114.880058 112 34726ft 471kts
14-Jun-19 18:04 33.594126 -114.731790 97 34730ft 473kts
14-Jun-19 18:05 33.579592 -114.574992 96 34728ft 472kts
14-Jun-19 18:06 33.565425 -114.418452 96 34728ft 473kts
14-Jun-19 18:07 33.551770 -114.269111 96 34724ft 472kts
14-Jun-19 18:08 33.537250 -114.112430 96 34729ft 473kts
14-Jun-19 18:09 33.522549 -113.956022 96 34738ft 472kts
14-Jun-19 18:10 33.479397 -113.809556 119 34745ft 470kts
14-Jun-19 18:11 33.417715 -113.672414 119 34761ft 469kts
14-Jun-19 18:12 33.355217 -113.535468 119 34778ft 469kts
14-Jun-19 18:13 33.292562 -113.398826 119 34782ft 469kts
14-Jun-19 18:14 33.231332 -113.265821 120 34775ft 474kts
14-Jun-19 18:15 33.168338 -113.129478 120 34763ft 466kts
14-Jun-19 18:16 33.105669 -112.994372 120 34753ft 467kts
14-Jun-19 18:17 33.042507 -112.858726 119 34078ft 469kts
14-Jun-19 18:18 32.979198 -112.723234 119 32602ft 470kts
14-Jun-19 18:19 32.921221 -112.583272 114 31124ft 473kts
14-Jun-19 18:20 32.869610 -112.448851 114 29776ft 476kts
14-Jun-19 18:21 32.816066 -112.310257 115 28531ft 479kts
14-Jun-19 18:22 32.761061 -112.168483 115 26935ft 468kts
14-Jun-19 18:23 32.707213 -112.030269 115 24843ft 453kts
14-Jun-19 18:24 32.655149 -111.897159 115 22477ft 437kts
14-Jun-19 18:25 32.604854 -111.769062 115 19949ft 422kts
14-Jun-19 18:26 32.559453 -111.653793 115 17299ft 342kts
14-Jun-19 18:27 32.506184 -111.561165 127 14565ft 335kts
14-Jun-19 18:28 32.441454 -111.489099 140 12440ft 318kts
14-Jun-19 18:29 32.375024 -111.421295 140 10944ft 311kts
14-Jun-19 18:30 32.310142 -111.355275 141 9449ft 305kts
14-Jun-19 18:31 32.248331 -111.292511 141 8015ft 299kts
14-Jun-19 18:32 32.189873 -111.233203 142 7374ft 240kts
14-Jun-19 18:33 32.140093 -111.182889 142 6361ft 235kts
14-Jun-19 18:34 32.091055 -111.133350 142 5353ft 230kts
14-Jun-19 18:35 32.044302 -111.083318 133 4980ft 214kts
14-Jun-19 18:36 32.007467 -111.031112 133 5010ft 207kts
14-Jun-19 18:37 31.975250 -110.977119 95 5000ft 200kts
14-Jun-19 18:38 32.001630 -110.922306 54 4585ft 186kts
14-Jun-19 18:39 32.034242 -110.882929 15 4015ft 158kts
14-Jun-19 18:40 32.074229 -110.889276 295 3352ft 142kts
14-Jun-19 18:41 32.103136 -110.924218 309 2635ft 139kts
14-Jun-19 18:42 32.116977 -110.938423 21 2603ft 22kts

Navigation Log

Ident Type
Flight plan parsing failed, navigation log unavailable